sensor_id;sensor_type;location;lat;lon;timestamp;P1;durP1;ratioP1;P2;durP2;ratioP2
54271;SDS011;40184;53.362;5.216;2022-11-23T00:00:45;22.75;;;12.68;;
54271;SDS011;40184;53.362;5.216;2022-11-23T00:03:13;21.05;;;12.30;;
54271;SDS011;40184;53.362;5.216;2022-11-23T00:05:40;28.95;;;13.50;;
54271;SDS011;40184;53.362;5.216;2022-11-23T00:08:05;22.92;;;12.98;;
54271;SDS011;40184;53.362;5.216;2022-11-23T00:10:31;25.13;;;11.95;;
54271;SDS011;40184;53.362;5.216;2022-11-23T00:12:57;21.25;;;12.40;;
54271;SDS011;40184;53.362;5.216;2022-11-23T00:15:22;26.45;;;13.30;;
54271;SDS011;40184;53.362;5.216;2022-11-23T00:17:48;24.70;;;12.40;;
54271;SDS011;40184;53.362;5.216;2022-11-23T00:20:13;27.05;;;13.43;;
54271;SDS011;40184;53.362;5.216;2022-11-23T00:22:39;24.50;;;12.50;;
54271;SDS011;40184;53.362;5.216;2022-11-23T00:25:05;20.85;;;12.70;;
54271;SDS011;40184;53.362;5.216;2022-11-23T00:27:31;24.10;;;12.80;;
54271;SDS011;40184;53.362;5.216;2022-11-23T00:29:56;28.55;;;14.55;;
54271;SDS011;40184;53.362;5.216;2022-11-23T00:32:22;27.08;;;14.00;;
54271;SDS011;40184;53.362;5.216;2022-11-23T00:34:48;29.35;;;14.23;;
54271;SDS011;40184;53.362;5.216;2022-11-23T00:37:13;30.55;;;14.00;;
54271;SDS011;40184;53.362;5.216;2022-11-23T00:39:39;23.38;;;13.18;;
54271;SDS011;40184;53.362;5.216;2022-11-23T00:42:04;24.85;;;13.55;;
54271;SDS011;40184;53.362;5.216;2022-11-23T00:44:30;24.40;;;12.57;;
54271;SDS011;40184;53.362;5.216;2022-11-23T00:46:56;21.15;;;12.68;;
54271;SDS011;40184;53.362;5.216;2022-11-23T00:49:21;28.25;;;14.45;;
54271;SDS011;40184;53.362;5.216;2022-11-23T00:51:47;28.48;;;15.02;;
54271;SDS011;40184;53.362;5.216;2022-11-23T00:54:12;26.85;;;14.77;;
54271;SDS011;40184;53.362;5.216;2022-11-23T00:56:38;27.30;;;15.95;;
54271;SDS011;40184;53.362;5.216;2022-11-23T00:59:04;24.42;;;15.10;;
54271;SDS011;40184;53.362;5.216;2022-11-23T01:01:30;23.95;;;15.65;;
54271;SDS011;40184;53.362;5.216;2022-11-23T01:03:59;26.13;;;16.05;;
54271;SDS011;40184;53.362;5.216;2022-11-23T01:06:26;34.92;;;18.70;;
54271;SDS011;40184;53.362;5.216;2022-11-23T01:08:54;36.03;;;18.30;;
54271;SDS011;40184;53.362;5.216;2022-11-23T01:11:22;35.50;;;17.15;;
54271;SDS011;40184;53.362;5.216;2022-11-23T01:13:49;25.80;;;16.00;;
54271;SDS011;40184;53.362;5.216;2022-11-23T01:16:17;31.85;;;15.32;;
54271;SDS011;40184;53.362;5.216;2022-11-23T01:18:54;33.25;;;15.68;;
54271;SDS011;40184;53.362;5.216;2022-11-23T01:21:21;28.90;;;15.88;;
54271;SDS011;40184;53.362;5.216;2022-11-23T01:23:47;30.23;;;17.15;;
54271;SDS011;40184;53.362;5.216;2022-11-23T01:26:13;31.48;;;18.23;;
54271;SDS011;40184;53.362;5.216;2022-11-23T01:28:39;37.13;;;19.10;;
54271;SDS011;40184;53.362;5.216;2022-11-23T01:31:12;33.58;;;18.27;;
54271;SDS011;40184;53.362;5.216;2022-11-23T01:33:42;38.08;;;20.55;;
54271;SDS011;40184;53.362;5.216;2022-11-23T01:36:18;28.58;;;18.77;;
54271;SDS011;40184;53.362;5.216;2022-11-23T01:38:46;35.63;;;19.05;;
54271;SDS011;40184;53.362;5.216;2022-11-23T01:41:14;35.45;;;20.48;;
54271;SDS011;40184;53.362;5.216;2022-11-23T01:43:42;28.85;;;18.15;;
54271;SDS011;40184;53.362;5.216;2022-11-23T01:46:08;31.05;;;19.10;;
54271;SDS011;40184;53.362;5.216;2022-11-23T01:48:44;33.28;;;20.73;;
54271;SDS011;40184;53.362;5.216;2022-11-23T01:51:32;30.45;;;19.20;;
54271;SDS011;40184;53.362;5.216;2022-11-23T01:54:08;29.40;;;19.02;;
54271;SDS011;40184;53.362;5.216;2022-11-23T01:56:41;34.60;;;19.67;;
54271;SDS011;40184;53.362;5.216;2022-11-23T01:59:10;29.35;;;18.83;;
54271;SDS011;40184;53.362;5.216;2022-11-23T02:01:40;32.53;;;21.15;;
54271;SDS011;40184;53.362;5.216;2022-11-23T02:04:07;30.00;;;20.23;;
54271;SDS011;40184;53.362;5.216;2022-11-23T02:06:37;35.47;;;20.35;;
54271;SDS011;40184;53.362;5.216;2022-11-23T02:09:04;31.15;;;20.70;;
54271;SDS011;40184;53.362;5.216;2022-11-23T02:11:31;33.80;;;21.63;;
54271;SDS011;40184;53.362;5.216;2022-11-23T02:13:57;43.15;;;21.17;;
54271;SDS011;40184;53.362;5.216;2022-11-23T02:16:24;39.63;;;22.67;;
54271;SDS011;40184;53.362;5.216;2022-11-23T02:18:50;38.70;;;24.05;;
54271;SDS011;40184;53.362;5.216;2022-11-23T02:21:17;42.70;;;22.40;;
54271;SDS011;40184;53.362;5.216;2022-11-23T02:23:45;40.22;;;24.27;;
54271;SDS011;40184;53.362;5.216;2022-11-23T02:26:33;39.40;;;23.33;;
54271;SDS011;40184;53.362;5.216;2022-11-23T02:31:51;34.35;;;23.83;;
54271;SDS011;40184;53.362;5.216;2022-11-23T02:34:17;41.67;;;23.45;;
54271;SDS011;40184;53.362;5.216;2022-11-23T02:36:47;40.17;;;25.63;;
54271;SDS011;40184;53.362;5.216;2022-11-23T02:39:30;50.17;;;25.55;;
54271;SDS011;40184;53.362;5.216;2022-11-23T02:41:57;40.45;;;24.55;;
54271;SDS011;40184;53.362;5.216;2022-11-23T02:47:04;44.53;;;25.45;;
54271;SDS011;40184;53.362;5.216;2022-11-23T02:49:31;45.90;;;25.73;;
54271;SDS011;40184;53.362;5.216;2022-11-23T02:51:57;44.83;;;25.63;;
54271;SDS011;40184;53.362;5.216;2022-11-23T02:54:22;44.03;;;26.00;;
54271;SDS011;40184;53.362;5.216;2022-11-23T02:56:48;41.13;;;25.98;;
54271;SDS011;40184;53.362;5.216;2022-11-23T02:59:13;38.75;;;25.77;;
54271;SDS011;40184;53.362;5.216;2022-11-23T03:01:39;43.30;;;25.90;;
54271;SDS011;40184;53.362;5.216;2022-11-23T03:04:05;41.55;;;24.75;;
54271;SDS011;40184;53.362;5.216;2022-11-23T03:06:31;45.65;;;25.70;;
54271;SDS011;40184;53.362;5.216;2022-11-23T03:08:57;38.88;;;24.58;;
54271;SDS011;40184;53.362;5.216;2022-11-23T03:11:22;41.20;;;24.35;;
54271;SDS011;40184;53.362;5.216;2022-11-23T03:13:48;36.67;;;23.42;;
54271;SDS011;40184;53.362;5.216;2022-11-23T03:16:14;33.25;;;22.85;;
54271;SDS011;40184;53.362;5.216;2022-11-23T03:18:40;33.95;;;21.77;;
54271;SDS011;40184;53.362;5.216;2022-11-23T03:21:06;38.85;;;22.58;;
54271;SDS011;40184;53.362;5.216;2022-11-23T03:23:35;40.55;;;23.13;;
54271;SDS011;40184;53.362;5.216;2022-11-23T03:26:01;35.83;;;22.13;;
54271;SDS011;40184;53.362;5.216;2022-11-23T03:28:28;36.00;;;21.48;;
54271;SDS011;40184;53.362;5.216;2022-11-23T03:30:53;38.05;;;22.98;;
54271;SDS011;40184;53.362;5.216;2022-11-23T03:33:19;38.85;;;21.23;;
54271;SDS011;40184;53.362;5.216;2022-11-23T03:35:45;40.05;;;23.67;;
54271;SDS011;40184;53.362;5.216;2022-11-23T03:38:11;35.95;;;23.52;;
54271;SDS011;40184;53.362;5.216;2022-11-23T03:40:37;38.38;;;21.55;;
54271;SDS011;40184;53.362;5.216;2022-11-23T03:43:02;46.58;;;24.00;;
54271;SDS011;40184;53.362;5.216;2022-11-23T03:45:28;45.03;;;24.50;;
54271;SDS011;40184;53.362;5.216;2022-11-23T03:47:54;40.55;;;21.27;;
54271;SDS011;40184;53.362;5.216;2022-11-23T03:50:19;43.08;;;23.17;;
54271;SDS011;40184;53.362;5.216;2022-11-23T03:52:47;40.45;;;23.02;;
54271;SDS011;40184;53.362;5.216;2022-11-23T03:55:13;39.15;;;24.10;;
54271;SDS011;40184;53.362;5.216;2022-11-23T03:57:39;33.67;;;22.65;;
54271;SDS011;40184;53.362;5.216;2022-11-23T04:00:05;42.47;;;23.70;;
54271;SDS011;40184;53.362;5.216;2022-11-23T04:02:31;49.65;;;25.60;;
54271;SDS011;40184;53.362;5.216;2022-11-23T04:04:57;45.58;;;25.38;;
54271;SDS011;40184;53.362;5.216;2022-11-23T04:07:22;42.47;;;24.95;;
54271;SDS011;40184;53.362;5.216;2022-11-23T04:09:48;41.42;;;24.95;;
54271;SDS011;40184;53.362;5.216;2022-11-23T04:12:13;42.67;;;24.95;;
54271;SDS011;40184;53.362;5.216;2022-11-23T04:14:39;46.17;;;25.90;;
54271;SDS011;40184;53.362;5.216;2022-11-23T04:17:05;46.88;;;25.42;;
54271;SDS011;40184;53.362;5.216;2022-11-23T04:19:30;38.92;;;24.58;;
54271;SDS011;40184;53.362;5.216;2022-11-23T04:21:56;41.90;;;25.10;;
54271;SDS011;40184;53.362;5.216;2022-11-23T04:24:22;40.03;;;25.15;;
54271;SDS011;40184;53.362;5.216;2022-11-23T04:26:48;44.35;;;26.08;;
54271;SDS011;40184;53.362;5.216;2022-11-23T04:29:13;43.00;;;26.30;;
54271;SDS011;40184;53.362;5.216;2022-11-23T04:31:39;41.47;;;24.23;;
54271;SDS011;40184;53.362;5.216;2022-11-23T04:34:04;37.13;;;23.67;;
54271;SDS011;40184;53.362;5.216;2022-11-23T04:36:30;37.65;;;24.02;;
54271;SDS011;40184;53.362;5.216;2022-11-23T04:38:56;42.05;;;23.15;;
54271;SDS011;40184;53.362;5.216;2022-11-23T04:41:22;39.42;;;23.65;;
54271;SDS011;40184;53.362;5.216;2022-11-23T04:43:48;46.35;;;23.02;;
54271;SDS011;40184;53.362;5.216;2022-11-23T04:46:14;46.70;;;23.67;;
54271;SDS011;40184;53.362;5.216;2022-11-23T04:48:40;44.25;;;23.25;;
54271;SDS011;40184;53.362;5.216;2022-11-23T04:51:05;37.78;;;21.15;;
54271;SDS011;40184;53.362;5.216;2022-11-23T04:53:31;42.83;;;23.15;;
54271;SDS011;40184;53.362;5.216;2022-11-23T04:55:57;38.70;;;22.33;;
54271;SDS011;40184;53.362;5.216;2022-11-23T04:58:22;36.97;;;23.13;;
54271;SDS011;40184;53.362;5.216;2022-11-23T05:00:48;36.00;;;21.48;;
54271;SDS011;40184;53.362;5.216;2022-11-23T05:03:14;34.72;;;20.95;;
54271;SDS011;40184;53.362;5.216;2022-11-23T05:05:40;38.65;;;24.25;;
54271;SDS011;40184;53.362;5.216;2022-11-23T05:08:06;41.53;;;22.92;;
54271;SDS011;40184;53.362;5.216;2022-11-23T05:10:33;40.97;;;23.67;;
54271;SDS011;40184;53.362;5.216;2022-11-23T05:12:58;55.80;;;24.73;;
54271;SDS011;40184;53.362;5.216;2022-11-23T05:15:24;41.40;;;25.45;;
54271;SDS011;40184;53.362;5.216;2022-11-23T05:17:50;43.05;;;24.33;;
54271;SDS011;40184;53.362;5.216;2022-11-23T05:20:16;47.15;;;26.73;;
54271;SDS011;40184;53.362;5.216;2022-11-23T05:22:42;42.72;;;25.55;;
54271;SDS011;40184;53.362;5.216;2022-11-23T05:25:08;44.75;;;27.85;;
54271;SDS011;40184;53.362;5.216;2022-11-23T05:27:33;40.85;;;26.48;;
54271;SDS011;40184;53.362;5.216;2022-11-23T05:29:59;49.67;;;28.67;;
54271;SDS011;40184;53.362;5.216;2022-11-23T05:32:25;48.17;;;27.73;;
54271;SDS011;40184;53.362;5.216;2022-11-23T05:34:51;55.42;;;27.98;;
54271;SDS011;40184;53.362;5.216;2022-11-23T05:37:17;51.50;;;28.73;;
54271;SDS011;40184;53.362;5.216;2022-11-23T05:39:42;47.47;;;28.23;;
54271;SDS011;40184;53.362;5.216;2022-11-23T05:42:08;60.22;;;29.45;;
54271;SDS011;40184;53.362;5.216;2022-11-23T05:44:34;53.08;;;29.65;;
54271;SDS011;40184;53.362;5.216;2022-11-23T05:47:00;47.95;;;29.02;;
54271;SDS011;40184;53.362;5.216;2022-11-23T05:49:26;55.45;;;30.10;;
54271;SDS011;40184;53.362;5.216;2022-11-23T05:51:51;49.60;;;29.65;;
54271;SDS011;40184;53.362;5.216;2022-11-23T05:54:17;47.00;;;28.05;;
54271;SDS011;40184;53.362;5.216;2022-11-23T05:56:43;56.25;;;28.80;;
54271;SDS011;40184;53.362;5.216;2022-11-23T05:59:09;42.35;;;29.25;;
54271;SDS011;40184;53.362;5.216;2022-11-23T06:01:35;55.63;;;30.20;;
54271;SDS011;40184;53.362;5.216;2022-11-23T06:04:01;49.60;;;29.48;;
54271;SDS011;40184;53.362;5.216;2022-11-23T06:06:27;43.50;;;26.48;;
54271;SDS011;40184;53.362;5.216;2022-11-23T06:08:52;48.63;;;27.33;;
54271;SDS011;40184;53.362;5.216;2022-11-23T06:11:18;51.47;;;26.40;;
54271;SDS011;40184;53.362;5.216;2022-11-23T06:13:47;53.67;;;26.23;;
54271;SDS011;40184;53.362;5.216;2022-11-23T06:16:13;50.47;;;24.88;;
54271;SDS011;40184;53.362;5.216;2022-11-23T06:18:39;45.95;;;23.27;;
54271;SDS011;40184;53.362;5.216;2022-11-23T06:21:04;44.17;;;23.15;;
54271;SDS011;40184;53.362;5.216;2022-11-23T06:23:30;38.78;;;22.55;;
54271;SDS011;40184;53.362;5.216;2022-11-23T06:25:58;43.75;;;23.92;;
54271;SDS011;40184;53.362;5.216;2022-11-23T06:28:24;35.70;;;23.58;;
54271;SDS011;40184;53.362;5.216;2022-11-23T06:30:51;42.22;;;24.50;;
54271;SDS011;40184;53.362;5.216;2022-11-23T06:33:16;41.17;;;23.08;;
54271;SDS011;40184;53.362;5.216;2022-11-23T06:35:50;38.05;;;24.17;;
54271;SDS011;40184;53.362;5.216;2022-11-23T06:38:19;39.53;;;22.95;;
54271;SDS011;40184;53.362;5.216;2022-11-23T06:40:45;42.97;;;24.25;;
54271;SDS011;40184;53.362;5.216;2022-11-23T06:43:11;38.35;;;24.83;;
54271;SDS011;40184;53.362;5.216;2022-11-23T06:45:36;36.15;;;23.05;;
54271;SDS011;40184;53.362;5.216;2022-11-23T06:48:02;38.70;;;24.05;;
54271;SDS011;40184;53.362;5.216;2022-11-23T06:50:28;37.42;;;24.02;;
54271;SDS011;40184;53.362;5.216;2022-11-23T06:52:54;47.40;;;25.02;;
54271;SDS011;40184;53.362;5.216;2022-11-23T06:55:20;43.70;;;24.92;;
54271;SDS011;40184;53.362;5.216;2022-11-23T06:57:47;36.75;;;23.27;;
54271;SDS011;40184;53.362;5.216;2022-11-23T07:00:13;36.53;;;25.20;;
54271;SDS011;40184;53.362;5.216;2022-11-23T07:02:39;38.25;;;23.35;;
54271;SDS011;40184;53.362;5.216;2022-11-23T07:05:05;32.58;;;24.45;;
54271;SDS011;40184;53.362;5.216;2022-11-23T07:07:31;32.95;;;23.17;;
54271;SDS011;40184;53.362;5.216;2022-11-23T07:09:56;35.72;;;25.02;;
54271;SDS011;40184;53.362;5.216;2022-11-23T07:12:22;33.17;;;23.38;;
54271;SDS011;40184;53.362;5.216;2022-11-23T07:14:48;42.97;;;26.10;;
54271;SDS011;40184;53.362;5.216;2022-11-23T07:17:13;37.67;;;25.40;;
54271;SDS011;40184;53.362;5.216;2022-11-23T07:19:39;34.97;;;24.02;;
54271;SDS011;40184;53.362;5.216;2022-11-23T07:22:04;38.50;;;25.35;;
54271;SDS011;40184;53.362;5.216;2022-11-23T07:24:30;42.55;;;26.58;;
54271;SDS011;40184;53.362;5.216;2022-11-23T07:26:56;34.90;;;25.23;;
54271;SDS011;40184;53.362;5.216;2022-11-23T07:29:21;40.65;;;27.17;;
54271;SDS011;40184;53.362;5.216;2022-11-23T07:31:47;39.85;;;25.58;;
54271;SDS011;40184;53.362;5.216;2022-11-23T07:34:13;38.40;;;27.02;;
54271;SDS011;40184;53.362;5.216;2022-11-23T07:36:38;40.53;;;25.42;;
54271;SDS011;40184;53.362;5.216;2022-11-23T07:39:04;47.30;;;26.35;;
54271;SDS011;40184;53.362;5.216;2022-11-23T07:41:30;35.67;;;25.85;;
54271;SDS011;40184;53.362;5.216;2022-11-23T07:43:55;35.97;;;26.65;;
54271;SDS011;40184;53.362;5.216;2022-11-23T07:46:21;40.25;;;27.83;;
54271;SDS011;40184;53.362;5.216;2022-11-23T07:48:47;40.63;;;27.98;;
54271;SDS011;40184;53.362;5.216;2022-11-23T07:51:12;46.13;;;28.45;;
54271;SDS011;40184;53.362;5.216;2022-11-23T07:53:38;44.63;;;29.08;;
54271;SDS011;40184;53.362;5.216;2022-11-23T07:56:04;43.58;;;28.25;;
54271;SDS011;40184;53.362;5.216;2022-11-23T07:58:30;38.80;;;24.95;;
54271;SDS011;40184;53.362;5.216;2022-11-23T08:00:57;39.80;;;24.38;;
54271;SDS011;40184;53.362;5.216;2022-11-23T08:03:23;38.70;;;25.20;;
54271;SDS011;40184;53.362;5.216;2022-11-23T08:05:49;36.80;;;24.98;;
54271;SDS011;40184;53.362;5.216;2022-11-23T08:08:15;33.97;;;24.27;;
54271;SDS011;40184;53.362;5.216;2022-11-23T08:10:41;32.53;;;22.58;;
54271;SDS011;40184;53.362;5.216;2022-11-23T08:13:07;38.80;;;24.15;;
54271;SDS011;40184;53.362;5.216;2022-11-23T08:15:32;36.70;;;22.05;;
54271;SDS011;40184;53.362;5.216;2022-11-23T08:17:59;36.20;;;22.65;;
54271;SDS011;40184;53.362;5.216;2022-11-23T08:20:27;36.97;;;22.30;;
54271;SDS011;40184;53.362;5.216;2022-11-23T08:22:54;37.22;;;22.35;;
54271;SDS011;40184;53.362;5.216;2022-11-23T08:25:20;31.08;;;19.88;;
54271;SDS011;40184;53.362;5.216;2022-11-23T08:27:57;35.80;;;21.63;;
54271;SDS011;40184;53.362;5.216;2022-11-23T08:30:24;35.60;;;20.95;;
54271;SDS011;40184;53.362;5.216;2022-11-23T08:32:50;36.90;;;19.80;;
54271;SDS011;40184;53.362;5.216;2022-11-23T08:35:16;35.42;;;21.17;;
54271;SDS011;40184;53.362;5.216;2022-11-23T08:37:41;36.55;;;21.33;;
54271;SDS011;40184;53.362;5.216;2022-11-23T08:40:07;28.75;;;20.08;;
54271;SDS011;40184;53.362;5.216;2022-11-23T08:42:33;42.13;;;20.42;;
54271;SDS011;40184;53.362;5.216;2022-11-23T08:44:59;35.60;;;19.13;;
54271;SDS011;40184;53.362;5.216;2022-11-23T08:47:27;34.08;;;18.67;;
54271;SDS011;40184;53.362;5.216;2022-11-23T08:49:52;33.72;;;17.83;;
54271;SDS011;40184;53.362;5.216;2022-11-23T08:52:18;27.35;;;17.33;;
54271;SDS011;40184;53.362;5.216;2022-11-23T08:54:43;32.97;;;17.33;;
54271;SDS011;40184;53.362;5.216;2022-11-23T08:57:09;30.38;;;17.05;;
54271;SDS011;40184;53.362;5.216;2022-11-23T08:59:35;35.22;;;17.92;;
54271;SDS011;40184;53.362;5.216;2022-11-23T09:02:00;30.77;;;18.00;;
54271;SDS011;40184;53.362;5.216;2022-11-23T09:04:26;25.23;;;15.50;;
54271;SDS011;40184;53.362;5.216;2022-11-23T09:06:53;28.17;;;16.38;;
54271;SDS011;40184;53.362;5.216;2022-11-23T09:09:19;28.65;;;16.15;;
54271;SDS011;40184;53.362;5.216;2022-11-23T09:11:44;29.48;;;15.75;;
54271;SDS011;40184;53.362;5.216;2022-11-23T09:14:10;32.03;;;17.02;;
54271;SDS011;40184;53.362;5.216;2022-11-23T09:16:36;22.92;;;18.10;;
54271;SDS011;40184;53.362;5.216;2022-11-23T09:19:01;24.88;;;16.50;;
54271;SDS011;40184;53.362;5.216;2022-11-23T09:21:27;32.50;;;18.10;;
54271;SDS011;40184;53.362;5.216;2022-11-23T09:23:57;32.00;;;16.90;;
54271;SDS011;40184;53.362;5.216;2022-11-23T09:26:23;30.38;;;17.60;;
54271;SDS011;40184;53.362;5.216;2022-11-23T09:28:49;29.05;;;17.63;;
54271;SDS011;40184;53.362;5.216;2022-11-23T09:31:15;29.08;;;17.52;;
54271;SDS011;40184;53.362;5.216;2022-11-23T09:33:40;27.08;;;17.52;;
54271;SDS011;40184;53.362;5.216;2022-11-23T09:36:06;33.42;;;17.70;;
54271;SDS011;40184;53.362;5.216;2022-11-23T09:38:32;30.98;;;17.25;;
54271;SDS011;40184;53.362;5.216;2022-11-23T09:52:06;38.35;;;15.43;;
54271;SDS011;40184;53.362;5.216;2022-11-23T09:54:39;36.17;;;15.95;;
54271;SDS011;40184;53.362;5.216;2022-11-23T09:57:08;30.73;;;14.05;;
54271;SDS011;40184;53.362;5.216;2022-11-23T09:59:39;30.88;;;14.00;;
54271;SDS011;40184;53.362;5.216;2022-11-23T10:02:20;31.40;;;15.15;;
54271;SDS011;40184;53.362;5.216;2022-11-23T10:04:48;32.00;;;14.98;;
54271;SDS011;40184;53.362;5.216;2022-11-23T10:15:32;26.63;;;11.88;;
54271;SDS011;40184;53.362;5.216;2022-11-23T10:18:22;29.40;;;11.95;;
54271;SDS011;40184;53.362;5.216;2022-11-23T10:23:37;24.65;;;10.38;;
54271;SDS011;40184;53.362;5.216;2022-11-23T10:26:17;36.35;;;10.45;;
54271;SDS011;40184;53.362;5.216;2022-11-23T10:28:45;20.30;;;8.20;;
54271;SDS011;40184;53.362;5.216;2022-11-23T10:31:12;27.80;;;8.32;;
54271;SDS011;40184;53.362;5.216;2022-11-23T10:33:46;23.10;;;7.13;;
54271;SDS011;40184;53.362;5.216;2022-11-23T10:36:29;21.40;;;7.18;;
54271;SDS011;40184;53.362;5.216;2022-11-23T10:38:58;25.42;;;8.93;;
54271;SDS011;40184;53.362;5.216;2022-11-23T10:41:25;29.17;;;7.78;;
54271;SDS011;40184;53.362;5.216;2022-11-23T10:43:55;25.88;;;6.38;;
54271;SDS011;40184;53.362;5.216;2022-11-23T10:46:40;18.30;;;5.28;;
54271;SDS011;40184;53.362;5.216;2022-11-23T10:51:34;22.05;;;5.20;;
54271;SDS011;40184;53.362;5.216;2022-11-23T10:54:01;18.65;;;5.57;;
54271;SDS011;40184;53.362;5.216;2022-11-23T10:56:28;18.75;;;4.55;;
54271;SDS011;40184;53.362;5.216;2022-11-23T10:58:55;20.73;;;4.95;;
54271;SDS011;40184;53.362;5.216;2022-11-23T11:01:22;16.30;;;5.85;;
54271;SDS011;40184;53.362;5.216;2022-11-23T11:03:53;19.43;;;5.10;;
54271;SDS011;40184;53.362;5.216;2022-11-23T11:06:28;20.55;;;5.38;;
54271;SDS011;40184;53.362;5.216;2022-11-23T11:08:57;32.58;;;5.78;;
54271;SDS011;40184;53.362;5.216;2022-11-23T11:14:13;22.35;;;5.18;;
54271;SDS011;40184;53.362;5.216;2022-11-23T11:21:52;23.92;;;5.00;;
54271;SDS011;40184;53.362;5.216;2022-11-23T11:24:25;20.67;;;4.68;;
54271;SDS011;40184;53.362;5.216;2022-11-23T11:26:58;25.52;;;5.60;;
54271;SDS011;40184;53.362;5.216;2022-11-23T11:31:59;22.10;;;5.20;;
54271;SDS011;40184;53.362;5.216;2022-11-23T11:40:18;28.25;;;6.15;;
54271;SDS011;40184;53.362;5.216;2022-11-23T11:42:54;18.50;;;4.47;;
54271;SDS011;40184;53.362;5.216;2022-11-23T11:45:43;25.45;;;4.85;;
54271;SDS011;40184;53.362;5.216;2022-11-23T11:51:02;24.60;;;6.25;;
54271;SDS011;40184;53.362;5.216;2022-11-23T11:53:40;24.33;;;5.35;;
54271;SDS011;40184;53.362;5.216;2022-11-23T11:56:15;24.58;;;4.93;;
54271;SDS011;40184;53.362;5.216;2022-11-23T11:58:54;16.70;;;4.28;;
54271;SDS011;40184;53.362;5.216;2022-11-23T12:01:37;22.50;;;5.03;;
54271;SDS011;40184;53.362;5.216;2022-11-23T12:04:05;22.20;;;4.57;;
54271;SDS011;40184;53.362;5.216;2022-11-23T12:06:41;28.30;;;5.10;;
54271;SDS011;40184;53.362;5.216;2022-11-23T12:09:16;27.10;;;5.35;;
54271;SDS011;40184;53.362;5.216;2022-11-23T12:11:45;27.33;;;6.53;;
54271;SDS011;40184;53.362;5.216;2022-11-23T12:14:12;20.92;;;4.68;;
54271;SDS011;40184;53.362;5.216;2022-11-23T12:33:35;25.08;;;5.15;;
54271;SDS011;40184;53.362;5.216;2022-11-23T12:38:53;24.40;;;5.47;;
54271;SDS011;40184;53.362;5.216;2022-11-23T12:41:54;22.30;;;5.00;;
54271;SDS011;40184;53.362;5.216;2022-11-23T12:50:14;24.52;;;5.00;;
54271;SDS011;40184;53.362;5.216;2022-11-23T12:58:22;25.50;;;5.75;;
54271;SDS011;40184;53.362;5.216;2022-11-23T13:01:35;25.58;;;4.95;;
54271;SDS011;40184;53.362;5.216;2022-11-23T13:12:53;16.95;;;3.90;;
54271;SDS011;40184;53.362;5.216;2022-11-23T13:20:23;20.48;;;3.95;;
54271;SDS011;40184;53.362;5.216;2022-11-23T13:22:51;23.52;;;4.70;;
54271;SDS011;40184;53.362;5.216;2022-11-23T13:32:57;20.55;;;4.22;;
54271;SDS011;40184;53.362;5.216;2022-11-23T13:35:47;16.80;;;3.88;;
54271;SDS011;40184;53.362;5.216;2022-11-23T13:38:22;24.17;;;5.07;;
54271;SDS011;40184;53.362;5.216;2022-11-23T13:40:49;19.05;;;4.43;;
54271;SDS011;40184;53.362;5.216;2022-11-23T13:43:28;12.82;;;4.00;;
54271;SDS011;40184;53.362;5.216;2022-11-23T13:48:53;22.85;;;5.32;;
54271;SDS011;40184;53.362;5.216;2022-11-23T13:51:30;24.27;;;4.95;;
54271;SDS011;40184;53.362;5.216;2022-11-23T13:54:01;16.05;;;3.05;;
54271;SDS011;40184;53.362;5.216;2022-11-23T13:56:30;17.45;;;4.32;;
54271;SDS011;40184;53.362;5.216;2022-11-23T14:04:35;26.83;;;6.30;;
54271;SDS011;40184;53.362;5.216;2022-11-23T14:34:36;18.27;;;3.92;;
54271;SDS011;40184;53.362;5.216;2022-11-23T14:37:42;16.88;;;3.78;;
54271;SDS011;40184;53.362;5.216;2022-11-23T14:43:32;14.45;;;3.33;;
54271;SDS011;40184;53.362;5.216;2022-11-23T14:46:03;15.63;;;4.15;;
54271;SDS011;40184;53.362;5.216;2022-11-23T14:48:31;23.10;;;4.75;;
54271;SDS011;40184;53.362;5.216;2022-11-23T14:51:00;21.67;;;4.82;;
54271;SDS011;40184;53.362;5.216;2022-11-23T14:53:30;28.75;;;4.53;;
54271;SDS011;40184;53.362;5.216;2022-11-23T14:55:59;30.75;;;6.22;;
54271;SDS011;40184;53.362;5.216;2022-11-23T14:58:25;17.20;;;4.15;;
54271;SDS011;40184;53.362;5.216;2022-11-23T15:00:58;20.42;;;4.03;;
54271;SDS011;40184;53.362;5.216;2022-11-23T15:03:26;19.38;;;4.07;;
54271;SDS011;40184;53.362;5.216;2022-11-23T15:08:43;16.13;;;3.35;;
54271;SDS011;40184;53.362;5.216;2022-11-23T15:11:22;15.27;;;3.97;;
54271;SDS011;40184;53.362;5.216;2022-11-23T15:13:51;16.58;;;3.53;;
54271;SDS011;40184;53.362;5.216;2022-11-23T15:16:26;26.65;;;6.30;;
54271;SDS011;40184;53.362;5.216;2022-11-23T15:18:51;21.15;;;4.63;;
54271;SDS011;40184;53.362;5.216;2022-11-23T15:21:21;21.40;;;4.07;;
54271;SDS011;40184;53.362;5.216;2022-11-23T15:23:54;21.05;;;3.45;;
54271;SDS011;40184;53.362;5.216;2022-11-23T15:28:54;16.25;;;3.10;;
54271;SDS011;40184;53.362;5.216;2022-11-23T15:33:57;15.88;;;3.22;;
54271;SDS011;40184;53.362;5.216;2022-11-23T15:36:34;15.15;;;3.42;;
54271;SDS011;40184;53.362;5.216;2022-11-23T15:39:02;16.17;;;4.53;;
54271;SDS011;40184;53.362;5.216;2022-11-23T15:41:32;18.67;;;4.20;;
54271;SDS011;40184;53.362;5.216;2022-11-23T15:44:14;21.00;;;3.63;;
54271;SDS011;40184;53.362;5.216;2022-11-23T15:46:51;22.02;;;4.95;;
54271;SDS011;40184;53.362;5.216;2022-11-23T15:51:48;23.38;;;3.72;;
54271;SDS011;40184;53.362;5.216;2022-11-23T15:54:17;19.15;;;3.75;;
54271;SDS011;40184;53.362;5.216;2022-11-23T15:57:06;18.48;;;3.70;;
54271;SDS011;40184;53.362;5.216;2022-11-23T15:59:43;24.73;;;4.20;;
54271;SDS011;40184;53.362;5.216;2022-11-23T16:02:29;22.27;;;3.53;;
54271;SDS011;40184;53.362;5.216;2022-11-23T16:10:20;27.90;;;5.15;;
54271;SDS011;40184;53.362;5.216;2022-11-23T16:12:57;21.20;;;3.65;;
54271;SDS011;40184;53.362;5.216;2022-11-23T16:18:13;18.30;;;3.10;;
54271;SDS011;40184;53.362;5.216;2022-11-23T16:20:48;23.98;;;4.15;;
54271;SDS011;40184;53.362;5.216;2022-11-23T16:23:33;28.60;;;5.10;;
54271;SDS011;40184;53.362;5.216;2022-11-23T16:26:19;23.48;;;3.75;;
54271;SDS011;40184;53.362;5.216;2022-11-23T16:28:54;21.45;;;4.25;;
54271;SDS011;40184;53.362;5.216;2022-11-23T16:34:10;18.57;;;4.63;;
54271;SDS011;40184;53.362;5.216;2022-11-23T16:36:39;25.20;;;4.68;;
54271;SDS011;40184;53.362;5.216;2022-11-23T16:39:05;20.02;;;4.40;;
54271;SDS011;40184;53.362;5.216;2022-11-23T16:41:30;21.88;;;4.75;;
54271;SDS011;40184;53.362;5.216;2022-11-23T16:43:56;21.30;;;4.35;;
54271;SDS011;40184;53.362;5.216;2022-11-23T16:46:21;22.88;;;4.35;;
54271;SDS011;40184;53.362;5.216;2022-11-23T16:48:47;13.93;;;3.38;;
54271;SDS011;40184;53.362;5.216;2022-11-23T16:51:13;17.05;;;3.67;;
54271;SDS011;40184;53.362;5.216;2022-11-23T16:53:42;23.60;;;5.10;;
54271;SDS011;40184;53.362;5.216;2022-11-23T16:56:09;21.45;;;4.72;;
54271;SDS011;40184;53.362;5.216;2022-11-23T16:58:42;20.23;;;2.85;;
54271;SDS011;40184;53.362;5.216;2022-11-23T17:01:10;19.67;;;3.50;;
54271;SDS011;40184;53.362;5.216;2022-11-23T17:03:50;27.85;;;3.88;;
54271;SDS011;40184;53.362;5.216;2022-11-23T17:06:16;20.95;;;4.15;;
54271;SDS011;40184;53.362;5.216;2022-11-23T17:08:47;16.35;;;4.25;;
54271;SDS011;40184;53.362;5.216;2022-11-23T17:11:14;23.42;;;4.95;;
54271;SDS011;40184;53.362;5.216;2022-11-23T17:13:48;30.08;;;4.55;;
54271;SDS011;40184;53.362;5.216;2022-11-23T17:16:16;13.90;;;3.67;;